Terminal Aerodrome Forecast
Issued by NWS Shreveport, LA

Home | Current Version | Previous Version | Text Only | Print | Product List | Glossary On
Versions: 1 2 3 4 5 6 7 8 9 10 11 12 13 14 15 16 17 18 19 20 21 22
550
FTUS44 KSHV 010928 AAB
TAFSHV
TAF AMD
KSHV 010928Z 0109/0206 35007KT P6SM SCT030
     FM011200 04006KT P6SM SCT015 SCT030
     FM011700 07006KT P6SM BKN035
     FM012100 12006KT P6SM SCT035=

USA.gov is the U.S. government's official web portal to all federal, state and local government web resources and services.